sensor_id;sensor_type;location;lat;lon;timestamp;P1;durP1;ratioP1;P2;durP2;ratioP2
64197;SDS011;50512;53.666;9.700;2022-10-17T00:00:44;12.38;;;5.93;;
64197;SDS011;50512;53.666;9.700;2022-10-17T00:03:10;11.70;;;5.70;;
64197;SDS011;50512;53.666;9.700;2022-10-17T00:05:37;13.73;;;5.50;;
64197;SDS011;50512;53.666;9.700;2022-10-17T00:08:04;15.63;;;6.25;;
64197;SDS011;50512;53.666;9.700;2022-10-17T00:10:29;9.35;;;4.97;;
64197;SDS011;50512;53.666;9.700;2022-10-17T00:12:55;10.85;;;5.18;;
64197;SDS011;50512;53.666;9.700;2022-10-17T00:15:21;13.43;;;4.90;;
64197;SDS011;50512;53.666;9.700;2022-10-17T00:17:47;10.15;;;5.03;;
64197;SDS011;50512;53.666;9.700;2022-10-17T00:20:13;13.70;;;5.68;;
64197;SDS011;50512;53.666;9.700;2022-10-17T00:22:39;10.70;;;5.45;;
64197;SDS011;50512;53.666;9.700;2022-10-17T00:25:05;11.43;;;5.28;;
64197;SDS011;50512;53.666;9.700;2022-10-17T00:27:33;16.42;;;5.13;;
64197;SDS011;50512;53.666;9.700;2022-10-17T00:29:59;10.45;;;5.22;;
64197;SDS011;50512;53.666;9.700;2022-10-17T00:32:26;11.55;;;5.45;;
64197;SDS011;50512;53.666;9.700;2022-10-17T00:34:51;12.30;;;5.10;;
64197;SDS011;50512;53.666;9.700;2022-10-17T00:37:17;12.45;;;4.95;;
64197;SDS011;50512;53.666;9.700;2022-10-17T00:39:42;9.57;;;5.40;;
64197;SDS011;50512;53.666;9.700;2022-10-17T00:42:09;10.77;;;5.60;;
64197;SDS011;50512;53.666;9.700;2022-10-17T00:47:39;14.32;;;5.47;;
64197;SDS011;50512;53.666;9.700;2022-10-17T00:50:07;11.98;;;4.82;;
64197;SDS011;50512;53.666;9.700;2022-10-17T00:52:33;9.65;;;5.25;;
64197;SDS011;50512;53.666;9.700;2022-10-17T00:54:59;7.70;;;5.07;;
64197;SDS011;50512;53.666;9.700;2022-10-17T00:57:28;11.32;;;5.63;;
64197;SDS011;50512;53.666;9.700;2022-10-17T00:59:55;11.93;;;5.38;;
64197;SDS011;50512;53.666;9.700;2022-10-17T01:02:22;11.70;;;4.82;;
64197;SDS011;50512;53.666;9.700;2022-10-17T01:04:49;14.35;;;5.90;;
64197;SDS011;50512;53.666;9.700;2022-10-17T01:07:16;10.30;;;5.22;;
64197;SDS011;50512;53.666;9.700;2022-10-17T01:09:42;10.00;;;6.07;;
64197;SDS011;50512;53.666;9.700;2022-10-17T01:12:10;10.27;;;5.18;;
64197;SDS011;50512;53.666;9.700;2022-10-17T01:14:44;13.98;;;6.07;;
64197;SDS011;50512;53.666;9.700;2022-10-17T01:17:18;15.30;;;6.93;;
64197;SDS011;50512;53.666;9.700;2022-10-17T01:19:56;11.55;;;5.97;;
64197;SDS011;50512;53.666;9.700;2022-10-17T01:22:32;7.90;;;4.85;;
64197;SDS011;50512;53.666;9.700;2022-10-17T01:25:12;9.80;;;4.78;;
64197;SDS011;50512;53.666;9.700;2022-10-17T01:27:49;11.25;;;5.38;;
64197;SDS011;50512;53.666;9.700;2022-10-17T01:30:27;10.95;;;4.82;;
64197;SDS011;50512;53.666;9.700;2022-10-17T01:33:04;10.73;;;5.22;;
64197;SDS011;50512;53.666;9.700;2022-10-17T01:35:36;9.32;;;5.25;;
64197;SDS011;50512;53.666;9.700;2022-10-17T01:38:06;14.05;;;5.25;;
64197;SDS011;50512;53.666;9.700;2022-10-17T01:40:35;8.68;;;5.13;;
64197;SDS011;50512;53.666;9.700;2022-10-17T01:43:04;11.02;;;5.50;;
64197;SDS011;50512;53.666;9.700;2022-10-17T01:45:36;10.85;;;4.80;;
64197;SDS011;50512;53.666;9.700;2022-10-17T01:48:08;10.15;;;4.65;;
64197;SDS011;50512;53.666;9.700;2022-10-17T01:50:40;10.73;;;5.22;;
64197;SDS011;50512;53.666;9.700;2022-10-17T01:53:09;10.07;;;5.22;;
64197;SDS011;50512;53.666;9.700;2022-10-17T01:55:38;10.85;;;5.00;;
64197;SDS011;50512;53.666;9.700;2022-10-17T01:58:06;13.35;;;5.45;;
64197;SDS011;50512;53.666;9.700;2022-10-17T02:00:35;10.27;;;5.30;;
64197;SDS011;50512;53.666;9.700;2022-10-17T02:03:03;10.10;;;5.00;;
64197;SDS011;50512;53.666;9.700;2022-10-17T02:05:35;11.52;;;4.95;;
64197;SDS011;50512;53.666;9.700;2022-10-17T02:08:03;9.10;;;4.63;;
64197;SDS011;50512;53.666;9.700;2022-10-17T02:10:30;9.98;;;5.35;;
64197;SDS011;50512;53.666;9.700;2022-10-17T02:13:01;11.52;;;4.93;;
64197;SDS011;50512;53.666;9.700;2022-10-17T02:15:39;10.25;;;5.30;;
64197;SDS011;50512;53.666;9.700;2022-10-17T02:18:15;10.00;;;5.15;;
64197;SDS011;50512;53.666;9.700;2022-10-17T02:20:52;9.25;;;4.88;;
64197;SDS011;50512;53.666;9.700;2022-10-17T02:23:23;9.57;;;4.88;;
64197;SDS011;50512;53.666;9.700;2022-10-17T02:25:58;9.80;;;5.40;;
64197;SDS011;50512;53.666;9.700;2022-10-17T02:28:32;9.48;;;4.68;;
64197;SDS011;50512;53.666;9.700;2022-10-17T02:31:05;10.07;;;4.90;;
64197;SDS011;50512;53.666;9.700;2022-10-17T02:33:36;8.70;;;5.40;;
64197;SDS011;50512;53.666;9.700;2022-10-17T02:36:10;14.02;;;4.70;;
64197;SDS011;50512;53.666;9.700;2022-10-17T02:38:38;6.85;;;4.32;;
64197;SDS011;50512;53.666;9.700;2022-10-17T02:41:06;6.30;;;4.10;;
64197;SDS011;50512;53.666;9.700;2022-10-17T02:43:37;8.23;;;4.60;;
64197;SDS011;50512;53.666;9.700;2022-10-17T02:46:03;8.60;;;3.78;;
64197;SDS011;50512;53.666;9.700;2022-10-17T02:48:30;7.60;;;4.43;;
64197;SDS011;50512;53.666;9.700;2022-10-17T02:51:03;7.78;;;4.20;;
64197;SDS011;50512;53.666;9.700;2022-10-17T02:53:37;7.85;;;3.80;;
64197;SDS011;50512;53.666;9.700;2022-10-17T02:56:07;7.00;;;3.72;;
64197;SDS011;50512;53.666;9.700;2022-10-17T02:58:38;7.22;;;3.80;;
64197;SDS011;50512;53.666;9.700;2022-10-17T03:01:05;8.73;;;4.10;;
64197;SDS011;50512;53.666;9.700;2022-10-17T03:03:31;6.20;;;3.53;;
64197;SDS011;50512;53.666;9.700;2022-10-17T03:05:57;7.18;;;3.95;;
64197;SDS011;50512;53.666;9.700;2022-10-17T03:08:22;7.25;;;3.58;;
64197;SDS011;50512;53.666;9.700;2022-10-17T03:10:49;8.65;;;4.35;;
64197;SDS011;50512;53.666;9.700;2022-10-17T03:13:15;13.98;;;3.78;;
64197;SDS011;50512;53.666;9.700;2022-10-17T03:15:41;7.85;;;3.55;;
64197;SDS011;50512;53.666;9.700;2022-10-17T03:18:06;9.02;;;3.50;;
64197;SDS011;50512;53.666;9.700;2022-10-17T03:20:32;7.05;;;3.47;;
64197;SDS011;50512;53.666;9.700;2022-10-17T03:22:57;10.30;;;4.50;;
64197;SDS011;50512;53.666;9.700;2022-10-17T03:25:23;9.57;;;3.80;;
64197;SDS011;50512;53.666;9.700;2022-10-17T03:27:50;7.43;;;3.60;;
64197;SDS011;50512;53.666;9.700;2022-10-17T03:30:16;7.40;;;3.63;;
64197;SDS011;50512;53.666;9.700;2022-10-17T03:32:41;8.07;;;3.80;;
64197;SDS011;50512;53.666;9.700;2022-10-17T03:35:07;8.90;;;3.72;;
64197;SDS011;50512;53.666;9.700;2022-10-17T03:37:33;5.28;;;3.63;;
64197;SDS011;50512;53.666;9.700;2022-10-17T03:39:58;5.95;;;3.45;;
64197;SDS011;50512;53.666;9.700;2022-10-17T03:42:24;9.50;;;3.63;;
64197;SDS011;50512;53.666;9.700;2022-10-17T03:44:51;11.45;;;3.78;;
64197;SDS011;50512;53.666;9.700;2022-10-17T03:47:16;6.50;;;3.83;;
64197;SDS011;50512;53.666;9.700;2022-10-17T03:49:41;7.32;;;5.05;;
64197;SDS011;50512;53.666;9.700;2022-10-17T03:52:09;6.22;;;3.78;;
64197;SDS011;50512;53.666;9.700;2022-10-17T03:54:35;7.72;;;3.60;;
64197;SDS011;50512;53.666;9.700;2022-10-17T03:57:00;7.43;;;3.80;;
64197;SDS011;50512;53.666;9.700;2022-10-17T03:59:26;5.53;;;3.50;;
64197;SDS011;50512;53.666;9.700;2022-10-17T04:01:53;7.68;;;3.47;;
64197;SDS011;50512;53.666;9.700;2022-10-17T04:04:18;6.15;;;3.50;;
64197;SDS011;50512;53.666;9.700;2022-10-17T04:06:43;5.90;;;3.97;;
64197;SDS011;50512;53.666;9.700;2022-10-17T04:09:09;7.18;;;4.32;;
64197;SDS011;50512;53.666;9.700;2022-10-17T04:11:35;6.30;;;3.60;;
64197;SDS011;50512;53.666;9.700;2022-10-17T04:14:00;6.70;;;3.58;;
64197;SDS011;50512;53.666;9.700;2022-10-17T04:16:26;5.50;;;3.60;;
64197;SDS011;50512;53.666;9.700;2022-10-17T04:18:53;7.70;;;3.50;;
64197;SDS011;50512;53.666;9.700;2022-10-17T04:21:20;10.60;;;4.30;;
64197;SDS011;50512;53.666;9.700;2022-10-17T04:23:46;5.43;;;3.88;;
64197;SDS011;50512;53.666;9.700;2022-10-17T04:26:11;6.53;;;3.40;;
64197;SDS011;50512;53.666;9.700;2022-10-17T04:28:37;4.90;;;3.65;;
64197;SDS011;50512;53.666;9.700;2022-10-17T04:31:03;6.25;;;3.95;;
64197;SDS011;50512;53.666;9.700;2022-10-17T04:33:30;5.93;;;3.65;;
64197;SDS011;50512;53.666;9.700;2022-10-17T04:35:58;6.70;;;4.03;;
64197;SDS011;50512;53.666;9.700;2022-10-17T04:38:25;6.32;;;4.03;;
64197;SDS011;50512;53.666;9.700;2022-10-17T04:40:52;9.60;;;4.15;;
64197;SDS011;50512;53.666;9.700;2022-10-17T04:43:17;10.70;;;4.22;;
64197;SDS011;50512;53.666;9.700;2022-10-17T04:45:43;6.65;;;4.10;;
64197;SDS011;50512;53.666;9.700;2022-10-17T04:48:09;6.38;;;3.92;;
64197;SDS011;50512;53.666;9.700;2022-10-17T04:50:34;6.32;;;4.20;;
64197;SDS011;50512;53.666;9.700;2022-10-17T04:53:01;8.32;;;4.30;;
64197;SDS011;50512;53.666;9.700;2022-10-17T04:55:27;6.40;;;4.35;;
64197;SDS011;50512;53.666;9.700;2022-10-17T04:57:52;11.07;;;4.18;;
64197;SDS011;50512;53.666;9.700;2022-10-17T05:00:18;8.82;;;4.57;;
64197;SDS011;50512;53.666;9.700;2022-10-17T05:02:43;5.93;;;4.40;;
64197;SDS011;50512;53.666;9.700;2022-10-17T05:05:09;8.48;;;3.97;;
64197;SDS011;50512;53.666;9.700;2022-10-17T05:07:34;7.07;;;4.43;;
64197;SDS011;50512;53.666;9.700;2022-10-17T05:10:05;7.93;;;4.30;;
64197;SDS011;50512;53.666;9.700;2022-10-17T05:12:32;9.02;;;3.90;;
64197;SDS011;50512;53.666;9.700;2022-10-17T05:14:57;9.43;;;4.50;;
64197;SDS011;50512;53.666;9.700;2022-10-17T05:17:23;7.13;;;4.65;;
64197;SDS011;50512;53.666;9.700;2022-10-17T05:19:48;8.05;;;4.15;;
64197;SDS011;50512;53.666;9.700;2022-10-17T05:22:13;10.32;;;4.80;;
64197;SDS011;50512;53.666;9.700;2022-10-17T05:24:39;6.50;;;4.07;;
64197;SDS011;50512;53.666;9.700;2022-10-17T05:27:06;6.45;;;4.75;;
64197;SDS011;50512;53.666;9.700;2022-10-17T05:29:31;7.47;;;4.57;;
64197;SDS011;50512;53.666;9.700;2022-10-17T05:31:58;7.82;;;4.45;;
64197;SDS011;50512;53.666;9.700;2022-10-17T05:34:23;8.15;;;4.03;;
64197;SDS011;50512;53.666;9.700;2022-10-17T05:36:49;6.57;;;4.15;;
64197;SDS011;50512;53.666;9.700;2022-10-17T05:39:14;5.75;;;4.25;;
64197;SDS011;50512;53.666;9.700;2022-10-17T05:41:40;9.02;;;4.10;;
64197;SDS011;50512;53.666;9.700;2022-10-17T05:44:07;7.88;;;4.25;;
64197;SDS011;50512;53.666;9.700;2022-10-17T05:46:32;7.25;;;4.22;;
64197;SDS011;50512;53.666;9.700;2022-10-17T05:48:58;11.48;;;4.38;;
64197;SDS011;50512;53.666;9.700;2022-10-17T05:51:23;6.90;;;3.90;;
64197;SDS011;50512;53.666;9.700;2022-10-17T05:53:48;5.72;;;3.65;;
64197;SDS011;50512;53.666;9.700;2022-10-17T05:56:14;8.30;;;3.63;;
64197;SDS011;50512;53.666;9.700;2022-10-17T05:58:40;6.80;;;4.03;;
64197;SDS011;50512;53.666;9.700;2022-10-17T06:01:07;9.63;;;6.13;;
64197;SDS011;50512;53.666;9.700;2022-10-17T06:03:34;7.53;;;4.25;;
64197;SDS011;50512;53.666;9.700;2022-10-17T06:06:02;6.03;;;4.05;;
64197;SDS011;50512;53.666;9.700;2022-10-17T06:08:28;8.10;;;4.63;;
64197;SDS011;50512;53.666;9.700;2022-10-17T06:10:53;7.53;;;4.35;;
64197;SDS011;50512;53.666;9.700;2022-10-17T06:13:19;5.75;;;3.90;;
64197;SDS011;50512;53.666;9.700;2022-10-17T06:15:44;6.70;;;4.35;;
64197;SDS011;50512;53.666;9.700;2022-10-17T06:18:11;7.53;;;3.95;;
64197;SDS011;50512;53.666;9.700;2022-10-17T06:20:36;7.03;;;4.30;;
64197;SDS011;50512;53.666;9.700;2022-10-17T06:23:02;7.03;;;4.32;;
64197;SDS011;50512;53.666;9.700;2022-10-17T06:25:29;7.32;;;4.57;;
64197;SDS011;50512;53.666;9.700;2022-10-17T06:27:54;6.97;;;4.43;;
64197;SDS011;50512;53.666;9.700;2022-10-17T06:30:20;4.68;;;3.80;;
64197;SDS011;50512;53.666;9.700;2022-10-17T06:32:45;9.00;;;4.28;;
64197;SDS011;50512;53.666;9.700;2022-10-17T06:35:12;8.15;;;4.32;;
64197;SDS011;50512;53.666;9.700;2022-10-17T06:37:38;6.35;;;4.28;;
64197;SDS011;50512;53.666;9.700;2022-10-17T06:40:03;7.88;;;4.10;;
64197;SDS011;50512;53.666;9.700;2022-10-17T06:42:30;7.45;;;4.40;;
64197;SDS011;50512;53.666;9.700;2022-10-17T06:44:55;7.47;;;4.43;;
64197;SDS011;50512;53.666;9.700;2022-10-17T06:47:21;7.50;;;4.30;;
64197;SDS011;50512;53.666;9.700;2022-10-17T06:49:46;7.65;;;4.50;;
64197;SDS011;50512;53.666;9.700;2022-10-17T06:52:13;16.25;;;4.55;;
64197;SDS011;50512;53.666;9.700;2022-10-17T06:54:38;8.23;;;4.65;;
64197;SDS011;50512;53.666;9.700;2022-10-17T06:57:04;7.38;;;4.60;;
64197;SDS011;50512;53.666;9.700;2022-10-17T06:59:29;12.50;;;5.00;;
64197;SDS011;50512;53.666;9.700;2022-10-17T07:01:54;7.18;;;4.13;;
64197;SDS011;50512;53.666;9.700;2022-10-17T07:04:20;6.88;;;4.50;;
64197;SDS011;50512;53.666;9.700;2022-10-17T07:06:45;9.18;;;4.55;;
64197;SDS011;50512;53.666;9.700;2022-10-17T07:09:12;9.02;;;4.45;;
64197;SDS011;50512;53.666;9.700;2022-10-17T07:11:38;6.43;;;3.90;;
64197;SDS011;50512;53.666;9.700;2022-10-17T07:14:03;5.95;;;4.20;;
64197;SDS011;50512;53.666;9.700;2022-10-17T07:16:28;6.38;;;4.05;;
64197;SDS011;50512;53.666;9.700;2022-10-17T07:18:54;6.88;;;4.22;;
64197;SDS011;50512;53.666;9.700;2022-10-17T07:21:20;6.30;;;3.88;;
64197;SDS011;50512;53.666;9.700;2022-10-17T07:23:45;7.65;;;4.68;;
64197;SDS011;50512;53.666;9.700;2022-10-17T07:26:13;8.27;;;5.07;;
64197;SDS011;50512;53.666;9.700;2022-10-17T07:28:41;7.65;;;4.13;;
64197;SDS011;50512;53.666;9.700;2022-10-17T07:31:08;10.02;;;3.65;;
64197;SDS011;50512;53.666;9.700;2022-10-17T07:33:35;5.57;;;3.55;;
64197;SDS011;50512;53.666;9.700;2022-10-17T07:36:01;8.65;;;3.25;;
64197;SDS011;50512;53.666;9.700;2022-10-17T07:38:28;6.63;;;3.50;;
64197;SDS011;50512;53.666;9.700;2022-10-17T07:40:54;6.68;;;3.50;;
64197;SDS011;50512;53.666;9.700;2022-10-17T07:43:21;6.43;;;3.17;;
64197;SDS011;50512;53.666;9.700;2022-10-17T07:45:46;7.00;;;3.67;;
64197;SDS011;50512;53.666;9.700;2022-10-17T07:48:12;5.53;;;3.00;;
64197;SDS011;50512;53.666;9.700;2022-10-17T07:50:38;7.43;;;3.60;;
64197;SDS011;50512;53.666;9.700;2022-10-17T07:53:03;5.93;;;3.45;;
64197;SDS011;50512;53.666;9.700;2022-10-17T07:55:29;8.13;;;3.58;;
64197;SDS011;50512;53.666;9.700;2022-10-17T07:57:54;7.05;;;3.30;;
64197;SDS011;50512;53.666;9.700;2022-10-17T08:00:22;5.25;;;3.15;;
64197;SDS011;50512;53.666;9.700;2022-10-17T08:02:48;8.32;;;3.10;;
64197;SDS011;50512;53.666;9.700;2022-10-17T08:05:13;6.43;;;3.28;;
64197;SDS011;50512;53.666;9.700;2022-10-17T08:07:39;7.15;;;3.33;;
64197;SDS011;50512;53.666;9.700;2022-10-17T08:10:04;5.50;;;2.90;;
64197;SDS011;50512;53.666;9.700;2022-10-17T08:12:30;7.88;;;3.30;;
64197;SDS011;50512;53.666;9.700;2022-10-17T08:14:56;6.93;;;3.10;;
64197;SDS011;50512;53.666;9.700;2022-10-17T08:17:22;6.03;;;3.13;;
64197;SDS011;50512;53.666;9.700;2022-10-17T08:19:48;5.47;;;3.15;;
64197;SDS011;50512;53.666;9.700;2022-10-17T08:22:13;7.40;;;3.17;;
64197;SDS011;50512;53.666;9.700;2022-10-17T08:24:39;5.25;;;3.05;;
64197;SDS011;50512;53.666;9.700;2022-10-17T08:27:04;5.38;;;3.10;;
64197;SDS011;50512;53.666;9.700;2022-10-17T08:29:30;6.88;;;3.10;;
64197;SDS011;50512;53.666;9.700;2022-10-17T08:31:55;5.70;;;2.90;;
64197;SDS011;50512;53.666;9.700;2022-10-17T08:34:22;5.30;;;3.20;;
64197;SDS011;50512;53.666;9.700;2022-10-17T08:36:48;6.40;;;3.53;;
64197;SDS011;50512;53.666;9.700;2022-10-17T08:39:13;5.75;;;3.47;;
64197;SDS011;50512;53.666;9.700;2022-10-17T08:41:43;6.25;;;2.90;;
64197;SDS011;50512;53.666;9.700;2022-10-17T08:44:19;6.80;;;3.00;;
64197;SDS011;50512;53.666;9.700;2022-10-17T08:46:55;6.22;;;3.30;;
64197;SDS011;50512;53.666;9.700;2022-10-17T08:49:28;6.80;;;3.00;;
64197;SDS011;50512;53.666;9.700;2022-10-17T08:52:02;8.75;;;3.50;;
64197;SDS011;50512;53.666;9.700;2022-10-17T08:54:34;6.57;;;3.00;;
64197;SDS011;50512;53.666;9.700;2022-10-17T08:57:07;5.57;;;3.17;;
64197;SDS011;50512;53.666;9.700;2022-10-17T08:59:35;6.20;;;3.00;;
64197;SDS011;50512;53.666;9.700;2022-10-17T09:02:02;7.13;;;3.33;;
64197;SDS011;50512;53.666;9.700;2022-10-17T09:04:45;4.55;;;2.80;;
64197;SDS011;50512;53.666;9.700;2022-10-17T09:07:23;5.95;;;3.28;;
64197;SDS011;50512;53.666;9.700;2022-10-17T09:09:58;6.68;;;3.10;;
64197;SDS011;50512;53.666;9.700;2022-10-17T09:12:30;8.32;;;3.10;;
64197;SDS011;50512;53.666;9.700;2022-10-17T09:17:58;6.05;;;2.85;;
64197;SDS011;50512;53.666;9.700;2022-10-17T09:20:29;5.00;;;3.05;;
64197;SDS011;50512;53.666;9.700;2022-10-17T09:22:57;7.68;;;3.20;;
64197;SDS011;50512;53.666;9.700;2022-10-17T09:25:25;11.52;;;3.58;;
64197;SDS011;50512;53.666;9.700;2022-10-17T09:27:52;7.65;;;2.92;;
64197;SDS011;50512;53.666;9.700;2022-10-17T09:30:21;6.40;;;2.95;;
64197;SDS011;50512;53.666;9.700;2022-10-17T09:32:52;8.95;;;2.97;;
64197;SDS011;50512;53.666;9.700;2022-10-17T09:35:18;6.93;;;2.80;;
64197;SDS011;50512;53.666;9.700;2022-10-17T09:37:46;5.75;;;3.00;;
64197;SDS011;50512;53.666;9.700;2022-10-17T09:40:15;5.10;;;3.05;;
64197;SDS011;50512;53.666;9.700;2022-10-17T09:42:45;6.70;;;3.00;;
64197;SDS011;50512;53.666;9.700;2022-10-17T09:45:15;7.10;;;2.88;;
64197;SDS011;50512;53.666;9.700;2022-10-17T09:47:43;6.28;;;2.97;;
64197;SDS011;50512;53.666;9.700;2022-10-17T09:50:16;7.15;;;3.05;;
64197;SDS011;50512;53.666;9.700;2022-10-17T09:52:49;4.85;;;3.10;;
64197;SDS011;50512;53.666;9.700;2022-10-17T09:55:16;6.68;;;3.00;;
64197;SDS011;50512;53.666;9.700;2022-10-17T09:57:52;5.90;;;3.17;;
64197;SDS011;50512;53.666;9.700;2022-10-17T10:00:20;5.95;;;2.80;;
64197;SDS011;50512;53.666;9.700;2022-10-17T10:02:49;5.15;;;3.10;;
64197;SDS011;50512;53.666;9.700;2022-10-17T10:05:15;5.03;;;2.92;;
64197;SDS011;50512;53.666;9.700;2022-10-17T10:07:42;7.05;;;3.28;;
64197;SDS011;50512;53.666;9.700;2022-10-17T10:10:26;9.15;;;2.70;;
64197;SDS011;50512;53.666;9.700;2022-10-17T10:13:03;4.88;;;2.80;;
64197;SDS011;50512;53.666;9.700;2022-10-17T10:15:32;9.75;;;3.08;;
64197;SDS011;50512;53.666;9.700;2022-10-17T10:17:59;6.03;;;3.10;;
64197;SDS011;50512;53.666;9.700;2022-10-17T10:20:27;5.15;;;2.90;;
64197;SDS011;50512;53.666;9.700;2022-10-17T10:23:10;8.20;;;4.00;;
64197;SDS011;50512;53.666;9.700;2022-10-17T10:25:39;6.85;;;3.08;;
64197;SDS011;50512;53.666;9.700;2022-10-17T10:28:16;6.82;;;3.53;;
64197;SDS011;50512;53.666;9.700;2022-10-17T10:30:44;6.85;;;3.63;;
64197;SDS011;50512;53.666;9.700;2022-10-17T10:33:11;9.32;;;3.65;;
64197;SDS011;50512;53.666;9.700;2022-10-17T10:35:37;7.50;;;3.28;;
64197;SDS011;50512;53.666;9.700;2022-10-17T10:38:08;7.60;;;3.65;;
64197;SDS011;50512;53.666;9.700;2022-10-17T10:40:37;7.22;;;3.50;;
64197;SDS011;50512;53.666;9.700;2022-10-17T10:43:18;6.95;;;3.45;;
64197;SDS011;50512;53.666;9.700;2022-10-17T10:45:48;10.93;;;4.28;;
64197;SDS011;50512;53.666;9.700;2022-10-17T10:48:17;5.53;;;3.05;;
64197;SDS011;50512;53.666;9.700;2022-10-17T10:50:45;6.03;;;3.25;;
64197;SDS011;50512;53.666;9.700;2022-10-17T10:53:18;7.75;;;3.85;;
64197;SDS011;50512;53.666;9.700;2022-10-17T10:55:57;6.88;;;3.50;;
64197;SDS011;50512;53.666;9.700;2022-10-17T10:58:26;6.40;;;3.42;;
64197;SDS011;50512;53.666;9.700;2022-10-17T11:00:59;6.57;;;3.72;;
64197;SDS011;50512;53.666;9.700;2022-10-17T11:03:30;7.43;;;3.63;;
64197;SDS011;50512;53.666;9.700;2022-10-17T11:06:01;6.90;;;3.30;;
64197;SDS011;50512;53.666;9.700;2022-10-17T11:08:32;6.10;;;3.80;;
64197;SDS011;50512;53.666;9.700;2022-10-17T11:11:13;5.80;;;3.25;;
64197;SDS011;50512;53.666;9.700;2022-10-17T11:13:44;7.57;;;3.78;;
64197;SDS011;50512;53.666;9.700;2022-10-17T11:16:17;5.82;;;3.40;;
64197;SDS011;50512;53.666;9.700;2022-10-17T11:18:49;8.43;;;4.00;;
64197;SDS011;50512;53.666;9.700;2022-10-17T11:21:20;7.65;;;3.47;;
64197;SDS011;50512;53.666;9.700;2022-10-17T11:23:52;8.80;;;3.58;;
64197;SDS011;50512;53.666;9.700;2022-10-17T11:26:26;6.90;;;3.72;;
64197;SDS011;50512;53.666;9.700;2022-10-17T11:28:53;6.85;;;3.83;;
64197;SDS011;50512;53.666;9.700;2022-10-17T11:31:19;7.70;;;3.42;;
64197;SDS011;50512;53.666;9.700;2022-10-17T11:33:48;6.82;;;3.70;;
64197;SDS011;50512;53.666;9.700;2022-10-17T11:36:17;7.65;;;3.70;;
64197;SDS011;50512;53.666;9.700;2022-10-17T11:38:46;7.35;;;3.90;;
64197;SDS011;50512;53.666;9.700;2022-10-17T11:41:23;5.35;;;3.47;;
64197;SDS011;50512;53.666;9.700;2022-10-17T11:43:57;7.63;;;3.40;;
64197;SDS011;50512;53.666;9.700;2022-10-17T11:46:41;5.47;;;3.20;;
64197;SDS011;50512;53.666;9.700;2022-10-17T11:49:14;8.73;;;3.60;;
64197;SDS011;50512;53.666;9.700;2022-10-17T11:51:44;8.75;;;3.33;;
64197;SDS011;50512;53.666;9.700;2022-10-17T11:54:13;5.28;;;3.20;;
64197;SDS011;50512;53.666;9.700;2022-10-17T11:56:46;7.28;;;3.67;;
64197;SDS011;50512;53.666;9.700;2022-10-17T11:59:23;10.30;;;3.90;;
64197;SDS011;50512;53.666;9.700;2022-10-17T12:02:18;6.72;;;3.80;;
64197;SDS011;50512;53.666;9.700;2022-10-17T12:04:52;8.73;;;4.00;;
64197;SDS011;50512;53.666;9.700;2022-10-17T12:07:25;5.65;;;3.80;;
64197;SDS011;50512;53.666;9.700;2022-10-17T12:09:59;9.23;;;3.70;;
64197;SDS011;50512;53.666;9.700;2022-10-17T12:12:34;7.95;;;3.40;;
64197;SDS011;50512;53.666;9.700;2022-10-17T12:17:53;12.80;;;5.20;;
64197;SDS011;50512;53.666;9.700;2022-10-17T12:20:24;7.82;;;4.65;;
64197;SDS011;50512;53.666;9.700;2022-10-17T12:22:54;12.75;;;5.47;;
64197;SDS011;50512;53.666;9.700;2022-10-17T12:25:22;15.23;;;5.20;;
64197;SDS011;50512;53.666;9.700;2022-10-17T12:28:09;12.00;;;5.78;;
64197;SDS011;50512;53.666;9.700;2022-10-17T12:30:47;14.80;;;5.88;;
64197;SDS011;50512;53.666;9.700;2022-10-17T12:33:16;8.43;;;5.13;;
64197;SDS011;50512;53.666;9.700;2022-10-17T12:35:43;12.02;;;6.88;;
64197;SDS011;50512;53.666;9.700;2022-10-17T12:41:01;8.68;;;5.75;;
64197;SDS011;50512;53.666;9.700;2022-10-17T12:49:18;11.75;;;5.93;;
64197;SDS011;50512;53.666;9.700;2022-10-17T12:54:54;9.55;;;6.10;;
64197;SDS011;50512;53.666;9.700;2022-10-17T12:57:23;9.52;;;6.00;;
64197;SDS011;50512;53.666;9.700;2022-10-17T13:00:03;11.10;;;5.53;;
64197;SDS011;50512;53.666;9.700;2022-10-17T13:02:37;13.50;;;6.78;;
64197;SDS011;50512;53.666;9.700;2022-10-17T13:05:04;11.25;;;6.15;;
64197;SDS011;50512;53.666;9.700;2022-10-17T13:07:32;15.27;;;7.22;;
64197;SDS011;50512;53.666;9.700;2022-10-17T13:10:00;17.17;;;7.20;;
64197;SDS011;50512;53.666;9.700;2022-10-17T13:12:26;11.95;;;6.70;;
64197;SDS011;50512;53.666;9.700;2022-10-17T13:14:51;13.20;;;6.85;;
64197;SDS011;50512;53.666;9.700;2022-10-17T13:17:24;11.77;;;6.57;;
64197;SDS011;50512;53.666;9.700;2022-10-17T13:19:50;13.52;;;7.53;;
64197;SDS011;50512;53.666;9.700;2022-10-17T13:22:17;14.98;;;7.00;;
64197;SDS011;50512;53.666;9.700;2022-10-17T13:24:45;12.40;;;7.03;;
64197;SDS011;50512;53.666;9.700;2022-10-17T13:27:21;13.20;;;7.28;;
64197;SDS011;50512;53.666;9.700;2022-10-17T13:29:49;11.70;;;6.78;;
64197;SDS011;50512;53.666;9.700;2022-10-17T13:32:15;11.88;;;7.38;;
64197;SDS011;50512;53.666;9.700;2022-10-17T13:34:42;11.88;;;7.43;;
64197;SDS011;50512;53.666;9.700;2022-10-17T13:37:09;10.05;;;6.32;;
64197;SDS011;50512;53.666;9.700;2022-10-17T13:39:38;16.40;;;7.25;;
64197;SDS011;50512;53.666;9.700;2022-10-17T13:42:05;18.85;;;7.85;;
64197;SDS011;50512;53.666;9.700;2022-10-17T13:44:39;16.17;;;8.18;;
64197;SDS011;50512;53.666;9.700;2022-10-17T13:47:04;15.40;;;7.90;;
64197;SDS011;50512;53.666;9.700;2022-10-17T13:49:31;14.18;;;7.30;;
64197;SDS011;50512;53.666;9.700;2022-10-17T13:51:59;15.25;;;8.60;;
64197;SDS011;50512;53.666;9.700;2022-10-17T13:54:32;15.32;;;8.02;;
64197;SDS011;50512;53.666;9.700;2022-10-17T13:57:00;14.63;;;7.72;;
64197;SDS011;50512;53.666;9.700;2022-10-17T13:59:29;15.38;;;8.02;;
64197;SDS011;50512;53.666;9.700;2022-10-17T14:02:00;14.95;;;7.72;;
64197;SDS011;50512;53.666;9.700;2022-10-17T14:04:26;14.63;;;7.70;;
64197;SDS011;50512;53.666;9.700;2022-10-17T14:06:51;16.23;;;7.90;;
64197;SDS011;50512;53.666;9.700;2022-10-17T14:09:19;13.45;;;7.60;;
64197;SDS011;50512;53.666;9.700;2022-10-17T14:11:55;12.55;;;7.57;;
64197;SDS011;50512;53.666;9.700;2022-10-17T14:14:23;13.80;;;8.18;;
64197;SDS011;50512;53.666;9.700;2022-10-17T14:16:50;14.50;;;9.13;;
64197;SDS011;50512;53.666;9.700;2022-10-17T14:19:19;14.45;;;8.15;;
64197;SDS011;50512;53.666;9.700;2022-10-17T14:21:51;12.95;;;7.55;;
64197;SDS011;50512;53.666;9.700;2022-10-17T14:24:29;13.45;;;7.65;;
64197;SDS011;50512;53.666;9.700;2022-10-17T14:26:54;12.98;;;7.90;;
64197;SDS011;50512;53.666;9.700;2022-10-17T14:29:22;11.23;;;6.85;;
64197;SDS011;50512;53.666;9.700;2022-10-17T14:31:49;12.00;;;6.93;;
64197;SDS011;50512;53.666;9.700;2022-10-17T14:34:23;15.13;;;8.98;;
64197;SDS011;50512;53.666;9.700;2022-10-17T14:36:52;12.55;;;7.53;;
64197;SDS011;50512;53.666;9.700;2022-10-17T14:39:19;14.10;;;8.38;;
64197;SDS011;50512;53.666;9.700;2022-10-17T14:41:48;13.85;;;8.23;;
64197;SDS011;50512;53.666;9.700;2022-10-17T14:44:17;21.55;;;10.05;;
64197;SDS011;50512;53.666;9.700;2022-10-17T14:46:45;16.45;;;8.63;;
64197;SDS011;50512;53.666;9.700;2022-10-17T14:49:15;12.02;;;7.75;;
64197;SDS011;50512;53.666;9.700;2022-10-17T14:54:52;13.00;;;7.57;;
64197;SDS011;50512;53.666;9.700;2022-10-17T14:57:21;16.20;;;7.82;;
64197;SDS011;50512;53.666;9.700;2022-10-17T14:59:48;14.98;;;8.20;;
64197;SDS011;50512;53.666;9.700;2022-10-17T15:02:14;16.33;;;9.13;;
64197;SDS011;50512;53.666;9.700;2022-10-17T15:04:39;22.90;;;8.95;;
64197;SDS011;50512;53.666;9.700;2022-10-17T15:07:05;19.60;;;9.35;;
64197;SDS011;50512;53.666;9.700;2022-10-17T15:09:31;13.65;;;8.43;;
64197;SDS011;50512;53.666;9.700;2022-10-17T15:11:58;15.20;;;9.13;;
64197;SDS011;50512;53.666;9.700;2022-10-17T15:14:26;14.05;;;9.25;;